Time;durP1;ratioP1;P1;durP2;ratioP2;P2;SDS_P1;SDS_P2;PMS_P1;PMS_P2;Temp;Humidity;BMP_temperature;BMP_pressure;BME280_temperature;BME280_humidity;BME280_pressure;Samples;Min_cycle;Max_cycle;Signal;HPM_P1;HPM_P2
2022/08/11 00:02:33;;;;;;;8.15;3.92;;;18.80;99.90;;;;;;5054362;28;37251;-57
2022/08/11 00:05:06;;;;;;;8.38;3.75;;;18.70;99.90;;;;;;5058798;28;37643;-57
2022/08/11 00:07:34;;;;;;;12.00;4.83;;;18.80;99.90;;;;;;5059630;28;37790;-57
2022/08/11 00:10:02;;;;;;;7.28;5.25;;;18.70;99.90;;;;;;5058926;28;37891;-57
2022/08/11 00:12:31;;;;;;;7.38;4.50;;;18.70;99.90;;;;;;5060661;28;37271;-57
2022/08/11 00:15:00;;;;;;;6.38;4.10;;;18.70;99.90;;;;;;5057777;28;38750;-57
2022/08/11 00:17:31;;;;;;;6.95;4.68;;;18.70;99.90;;;;;;5060647;28;37617;-57
2022/08/11 00:20:06;;;;;;;7.53;5.05;;;18.70;99.90;;;;;;5058185;28;38717;-57
2022/08/11 00:22:36;;;;;;;7.63;4.53;;;18.70;99.90;;;;;;5060031;28;37373;-58
2022/08/11 00:25:10;;;;;;;7.25;4.45;;;18.70;99.90;;;;;;5055573;28;38238;-57
2022/08/11 00:27:40;;;;;;;7.07;4.55;;;18.60;99.90;;;;;;5059710;28;39378;-57
2022/08/11 00:30:09;;;;;;;6.80;4.22;;;18.60;99.90;;;;;;5059341;28;39499;-57
2022/08/11 00:32:39;;;;;;;8.55;4.05;;;18.50;99.90;;;;;;5058799;28;35340;-57
2022/08/11 00:35:08;;;;;;;7.40;4.03;;;18.40;99.90;;;;;;5055894;28;37640;-57
2022/08/11 00:37:38;;;;;;;7.03;4.55;;;18.40;99.90;;;;;;5057464;28;40004;-57
2022/08/11 00:40:15;;;;;;;6.88;4.30;;;18.40;99.90;;;;;;5053720;28;36118;-57
2022/08/11 00:42:55;;;;;;;5.70;4.18;;;18.30;99.90;;;;;;5057034;28;37550;-57
2022/08/11 00:45:26;;;;;;;5.53;3.53;;;18.30;99.90;;;;;;5056080;28;38342;-57
2022/08/11 00:48:02;;;;;;;7.18;4.30;;;18.30;99.90;;;;;;5055942;28;38772;-57
2022/08/11 00:50:41;;;;;;;7.53;4.53;;;18.20;99.90;;;;;;5055971;28;36171;-57
2022/08/11 00:53:45;;;;;;;7.40;4.70;;;18.20;99.90;;;;;;5051856;28;38495;-57
2022/08/11 00:56:26;;;;;;;;;;;18.20;99.90;;;;;;4992544;28;36177;-56
2022/08/11 00:59:31;;;;;;;9.93;4.68;;;18.20;99.90;;;;;;5048045;28;40131;-57
2022/08/11 01:02:12;;;;;;;8.88;4.85;;;18.20;99.90;;;;;;5059579;28;37764;-57
2022/08/11 01:05:06;;;;;;;6.15;4.45;;;18.20;99.90;;;;;;5055748;28;38210;-57
2022/08/11 01:08:34;;;;;;;6.13;4.15;;;18.20;99.90;;;;;;5058323;28;37599;-56
2022/08/11 01:11:36;;;;;;;6.43;3.80;;;18.10;99.90;;;;;;5007338;28;37942;-57
2022/08/11 01:14:41;;;;;;;5.88;3.85;;;18.10;99.90;;;;;;5008233;28;37615;-56
2022/08/11 01:17:49;;;;;;;8.55;4.90;;;18.10;99.90;;;;;;5050748;28;36717;-56
2022/08/11 01:20:46;;;;;;;9.73;4.45;;;18.10;99.90;;;;;;5051713;28;37069;-57
2022/08/11 01:24:12;;;;;;;8.05;4.60;;;18.10;99.90;;;;;;5049253;28;36578;-56
2022/08/11 01:27:22;;;;;;;14.88;5.00;;;18.20;99.90;;;;;;5049678;28;36493;-56
2022/08/11 01:30:19;;;;;;;6.95;4.63;;;18.20;99.90;;;;;;5048338;28;38173;-57
2022/08/11 01:33:23;;;;;;;7.93;4.07;;;18.10;99.90;;;;;;5042535;28;36431;-57
2022/08/11 01:36:27;;;;;;;6.85;4.15;;;18.10;99.90;;;;;;5046562;28;38247;-57
2022/08/11 01:39:32;;;;;;;6.63;3.80;;;18.00;99.90;;;;;;5052941;28;38688;-57
2022/08/11 01:45:32;;;;;;;9.60;4.55;;;17.90;99.90;;;;;;5049066;28;38064;-57
2022/08/11 01:48:06;;;;;;;8.05;4.95;;;17.90;99.90;;;;;;5046045;28;38561;-56
2022/08/11 01:50:52;;;;;;;9.57;5.22;;;17.90;99.90;;;;;;5050884;28;38210;-57
2022/08/11 01:53:30;;;;;;;9.98;5.63;;;17.90;99.90;;;;;;5047709;28;37212;-56
2022/08/11 01:56:13;;;;;;;10.35;5.25;;;18.00;99.90;;;;;;5048738;28;36169;-57
2022/08/11 01:58:48;;;;;;;7.90;5.00;;;18.00;99.90;;;;;;5048976;28;38488;-57
2022/08/11 02:01:41;;;;;;;8.55;5.47;;;18.00;99.90;;;;;;5051517;28;38258;-56
2022/08/11 02:04:18;;;;;;;8.18;5.43;;;18.10;99.90;;;;;;5046202;28;36511;-57
2022/08/11 02:06:54;;;;;;;9.32;5.03;;;18.10;99.90;;;;;;5051765;28;38132;-56
2022/08/11 02:09:40;;;;;;;6.20;4.20;;;18.10;99.90;;;;;;5054254;28;37631;-56
2022/08/11 02:12:14;;;;;;;7.65;4.85;;;18.00;99.90;;;;;;5053116;28;37519;-61
2022/08/11 02:14:49;;;;;;;7.50;4.75;;;18.00;99.90;;;;;;5047895;28;37871;-56
2022/08/11 02:17:21;;;;;;;6.95;4.63;;;17.90;99.90;;;;;;5052808;28;39647;-57
2022/08/11 02:25:46;;;;;;;7.47;4.30;;;17.80;99.90;;;;;;5034466;28;39157;-61
2022/08/11 02:28:22;;;;;;;7.18;4.45;;;17.80;99.90;;;;;;5036470;28;38275;-62
2022/08/11 02:33:43;;;;;;;7.63;4.70;;;17.80;99.90;;;;;;5034742;28;37755;-61
2022/08/11 02:36:18;;;;;;;6.57;4.53;;;17.80;99.90;;;;;;5038472;28;36522;-62
2022/08/11 02:38:55;;;;;;;6.15;3.90;;;17.80;99.90;;;;;;5038328;28;38610;-57
2022/08/11 02:44:31;;;;;;;6.75;3.80;;;17.70;99.90;;;;;;5036524;28;40883;-57
2022/08/11 02:47:06;;;;;;;7.38;4.80;;;17.70;99.90;;;;;;5037990;28;35392;-57
2022/08/11 02:49:55;;;;;;;10.80;5.07;;;17.70;99.90;;;;;;5036260;28;37541;-57
2022/08/11 02:52:33;;;;;;;7.30;4.50;;;17.70;99.90;;;;;;5038194;28;37730;-61
2022/08/11 02:55:18;;;;;;;7.50;4.38;;;17.70;99.90;;;;;;5037224;28;38548;-61
2022/08/11 02:57:54;;;;;;;7.15;4.70;;;17.70;99.90;;;;;;5037485;28;35262;-61
2022/08/11 03:00:22;;;;;;;6.65;4.55;;;17.70;99.90;;;;;;5032797;28;37491;-61
2022/08/11 03:03:01;;;;;;;6.25;3.75;;;17.70;99.90;;;;;;5032056;28;37462;-57
2022/08/11 03:05:44;;;;;;;6.60;3.75;;;17.60;99.90;;;;;;5034038;28;37209;-61
2022/08/11 03:08:23;;;;;;;5.93;4.20;;;17.50;99.90;;;;;;5037782;28;36402;-61
2022/08/11 03:16:52;;;;;;;6.95;4.13;;;17.40;99.90;;;;;;5038755;28;39074;-61
2022/08/11 03:19:26;;;;;;;7.75;4.82;;;17.40;99.90;;;;;;5033014;28;37427;-62
2022/08/11 03:22:03;;;;;;;8.75;5.38;;;17.40;99.90;;;;;;5030065;28;38750;-61
2022/08/11 03:24:39;;;;;;;9.60;5.43;;;17.40;99.90;;;;;;5033785;28;37763;-57
2022/08/11 03:27:10;;;;;;;9.20;5.68;;;17.50;99.90;;;;;;5026549;28;37349;-57
2022/08/11 03:29:44;;;;;;;9.32;5.78;;;17.50;99.90;;;;;;5030974;28;36120;-61
2022/08/11 03:32:27;;;;;;;10.40;5.28;;;17.50;99.90;;;;;;5028441;28;38927;-61
2022/08/11 03:34:56;;;;;;;9.10;5.65;;;17.50;99.90;;;;;;5033493;28;39780;-61
2022/08/11 03:37:49;;;;;;;8.90;5.97;;;17.50;99.90;;;;;;5028173;28;37408;-62
2022/08/11 03:43:44;;;;;;;10.40;5.75;;;17.50;99.90;;;;;;5030685;28;37492;-57
2022/08/11 03:46:19;;;;;;;8.20;6.13;;;17.50;99.90;;;;;;5029056;28;37526;-61
2022/08/11 03:48:56;;;;;;;7.30;5.22;;;17.50;99.90;;;;;;5028882;28;38035;-61
2022/08/11 03:51:29;;;;;;;6.05;2.67;;;17.50;99.90;;;;;;5029652;28;37720;-58
2022/08/11 03:54:09;;;;;;;5.32;3.10;;;17.40;99.90;;;;;;5025893;28;38665;-57
2022/08/11 03:57:20;;;;;;;6.72;2.47;;;17.30;99.90;;;;;;5031711;28;38007;-57
2022/08/11 04:00:21;;;;;;;4.93;2.50;;;17.30;99.90;;;;;;5028660;28;38034;-57
2022/08/11 04:03:15;;;;;;;6.93;2.80;;;17.20;99.90;;;;;;5026633;28;38905;-57
2022/08/11 04:06:16;;;;;;;6.55;3.92;;;17.20;99.90;;;;;;5026134;28;37346;-57
2022/08/11 04:09:23;;;;;;;7.95;3.95;;;17.20;99.90;;;;;;5028942;28;37150;-61
2022/08/11 04:12:17;;;;;;;6.55;4.15;;;17.10;99.90;;;;;;5029384;28;38530;-61
2022/08/11 04:18:39;;;;;;;5.72;3.85;;;17.10;99.90;;;;;;5022423;28;39380;-61
2022/08/11 04:21:21;;;;;;;7.07;4.47;;;17.10;99.90;;;;;;5049511;28;37707;-61
2022/08/11 04:24:09;;;;;;;7.22;5.00;;;17.10;99.90;;;;;;5052562;28;38602;-61
2022/08/11 04:27:17;;;;;;;6.68;4.88;;;17.20;99.90;;;;;;5049187;28;37936;-61
2022/08/11 04:30:00;;;;;;;8.32;4.88;;;17.20;99.90;;;;;;5050644;28;36232;-61
2022/08/11 04:32:43;;;;;;;6.43;4.38;;;17.20;99.90;;;;;;5051623;28;36864;-57
2022/08/11 04:35:34;;;;;;;5.32;3.22;;;17.20;99.90;;;;;;5052070;28;37943;-61
2022/08/11 04:38:35;;;;;;;6.47;3.55;;;17.20;99.90;;;;;;5054927;28;36197;-61
2022/08/11 04:45:15;;;;;;;5.65;3.30;;;17.20;99.90;;;;;;5058949;28;38691;-61
2022/08/11 05:03:35;;;;;;;5.40;3.42;;;17.60;99.90;;;;;;5054738;28;37766;-57
2022/08/11 05:06:47;;;;;;;7.45;4.30;;;17.70;99.90;;;;;;5056372;28;38821;-61
2022/08/11 05:09:28;;;;;;;7.70;5.28;;;17.90;99.90;;;;;;5057209;28;37406;-61
2022/08/11 05:12:15;;;;;;;9.13;5.88;;;18.10;99.90;;;;;;5057279;28;37978;-61
2022/08/11 05:35:04;;;;;;;8.95;6.47;;;19.30;99.90;;;;;;5031490;28;39347;-57
2022/08/11 05:37:40;;;;;;;11.32;6.47;;;19.40;99.90;;;;;;5035974;28;37209;-57
2022/08/11 05:57:05;;;;;;;12.65;6.53;;;20.20;99.90;;;;;;5035704;28;37986;-57
2022/08/11 05:59:34;;;;;;;10.02;6.30;;;20.30;99.90;;;;;;5034936;28;35267;-58
2022/08/11 06:02:04;;;;;;;11.20;5.45;;;20.40;99.90;;;;;;5035464;28;37517;-62
2022/08/11 06:04:32;;;;;;;8.13;6.05;;;20.60;99.90;;;;;;5034339;28;41104;-57
2022/08/11 06:07:02;;;;;;;12.73;6.50;;;20.60;99.90;;;;;;5032807;28;39870;-57
2022/08/11 06:09:33;;;;;;;8.40;5.85;;;20.80;99.90;;;;;;5033726;28;35350;-58
2022/08/11 06:12:04;;;;;;;8.05;5.57;;;20.80;99.90;;;;;;5034045;28;38404;-57
2022/08/11 06:14:35;;;;;;;11.25;5.25;;;20.90;99.90;;;;;;5034331;28;38953;-62
2022/08/11 06:17:05;;;;;;;10.80;5.40;;;21.00;99.90;;;;;;5033448;28;37653;-62
2022/08/11 06:19:34;;;;;;;11.38;5.55;;;21.10;99.90;;;;;;5048230;28;35202;-63
2022/08/11 06:22:04;;;;;;;15.90;5.55;;;21.20;99.90;;;;;;5052826;28;37822;-57
2022/08/11 06:24:33;;;;;;;9.85;5.25;;;21.20;99.90;;;;;;5050926;28;37378;-62
2022/08/11 06:27:03;;;;;;;9.00;5.68;;;21.30;99.90;;;;;;5054221;28;36241;-62
2022/08/11 06:29:31;;;;;;;10.30;4.90;;;21.30;99.90;;;;;;5053168;28;36798;-62
2022/08/11 06:32:02;;;;;;;11.60;5.05;;;21.30;99.90;;;;;;5052467;28;37639;-57
2022/08/11 06:34:38;;;;;;;8.60;4.30;;;21.30;99.90;;;;;;5053998;28;36718;-57
2022/08/11 06:37:18;;;;;;;11.98;4.68;;;21.30;99.90;;;;;;5053027;28;37322;-62
2022/08/11 06:39:52;;;;;;;10.02;4.65;;;21.40;99.90;;;;;;5053516;28;36736;-62
2022/08/11 06:42:31;;;;;;;;;;;21.40;99.90;;;;;;5052690;28;36408;-62
2022/08/11 06:45:07;;;;;;;7.63;3.58;;;21.40;99.90;;;;;;5050320;28;38472;-62
2022/08/11 06:47:36;;;;;;;6.40;4.28;;;21.50;99.90;;;;;;5052137;28;35560;-62
2022/08/11 06:52:53;;;;;;;6.90;3.90;;;21.50;99.90;;;;;;5054184;28;39554;-62
2022/08/11 07:00:26;;;;;;;7.43;4.20;;;21.50;99.90;;;;;;5052658;28;39105;-62
2022/08/11 07:01:06;;;;;;;8.90;4.00;;;21.60;99.90;;;;;;5051146;28;37421;-62
2022/08/11 07:03:40;;;;;;;7.57;4.43;;;21.60;99.90;;;;;;5053463;28;37749;-57
2022/08/11 07:06:22;;;;;;;6.80;4.30;;;21.60;99.90;;;;;;5047133;28;37939;-58
2022/08/11 07:17:48;;;;;;;8.10;4.30;;;21.70;99.90;;;;;;5053653;28;38413;-62
2022/08/11 07:28:57;;;;;;;6.28;3.30;;;21.80;99.90;;;;;;5032307;28;38756;-57
2022/08/11 07:31:31;;;;;;;7.00;3.42;;;21.90;99.90;;;;;;5032708;28;37556;-58
2022/08/11 07:34:11;;;;;;;6.43;3.17;;;21.90;99.90;;;;;;5028632;28;36522;-57
2022/08/11 07:36:45;;;;;;;6.22;3.15;;;22.00;99.90;;;;;;5032928;28;37602;-62
2022/08/11 07:39:19;;;;;;;9.13;3.80;;;22.10;99.90;;;;;;5031706;28;38743;-58
2022/08/11 07:41:47;;;;;;;6.95;3.50;;;22.10;99.90;;;;;;5032499;28;39341;-57
2022/08/11 07:44:16;;;;;;;7.35;3.15;;;22.20;99.70;;;;;;5032570;28;37103;-58
2022/08/11 07:52:32;;;;;;;6.22;3.38;;;22.50;98.80;;;;;;5027755;28;40258;-57
2022/08/11 07:55:03;;;;;;;10.15;3.80;;;22.50;98.90;;;;;;5030156;28;36304;-57
2022/08/11 08:19:46;;;;;;;8.00;3.00;;;23.20;96.70;;;;;;5032160;28;39574;-57
2022/08/11 08:22:17;;;;;;;5.93;2.30;;;23.30;96.70;;;;;;5027345;28;39590;-57
2022/08/11 08:24:47;;;;;;;6.22;1.90;;;23.40;96.30;;;;;;5031295;28;36073;-58
2022/08/11 08:27:15;;;;;;;6.95;2.28;;;23.40;95.60;;;;;;5030638;28;37488;-57
2022/08/11 08:32:31;;;;;;;6.55;2.47;;;23.50;94.30;;;;;;5030019;28;39428;-57
2022/08/11 08:34:58;;;;;;;7.18;2.17;;;23.60;94.20;;;;;;5027203;28;37945;-57
2022/08/11 08:37:26;;;;;;;4.90;2.00;;;23.70;94.00;;;;;;5030050;28;35394;-57
2022/08/11 08:39:57;;;;;;;8.30;2.50;;;23.80;93.10;;;;;;5030655;28;39487;-57
2022/08/11 08:42:30;;;;;;;7.28;2.17;;;23.90;92.90;;;;;;5032519;28;37325;-62
2022/08/11 08:45:04;;;;;;;5.07;1.80;;;24.00;92.90;;;;;;5028472;28;38765;-62
2022/08/11 08:47:36;;;;;;;8.02;1.98;;;24.10;92.70;;;;;;5029855;28;36813;-62
2022/08/11 08:50:10;;;;;;;6.53;1.92;;;24.20;92.70;;;;;;5030890;28;39039;-63
2022/08/11 08:52:42;;;;;;;5.30;1.60;;;24.30;92.20;;;;;;5029781;28;36661;-62
2022/08/11 08:55:18;;;;;;;4.82;1.70;;;24.30;92.30;;;;;;5031038;28;37271;-63
2022/08/11 08:57:48;;;;;;;5.38;1.90;;;24.50;92.50;;;;;;5026401;28;37371;-62
2022/08/11 09:00:17;;;;;;;10.23;1.80;;;24.60;91.90;;;;;;5026239;28;36237;-62
2022/08/11 09:02:45;;;;;;;5.15;1.17;;;24.70;91.00;;;;;;5031413;28;36673;-63
2022/08/11 09:05:20;;;;;;;4.03;1.75;;;24.80;90.30;;;;;;5028832;28;37172;-63
2022/08/11 09:07:50;;;;;;;4.25;1.30;;;24.90;89.80;;;;;;5029137;28;36525;-63
2022/08/11 09:10:20;;;;;;;8.70;1.45;;;25.00;89.70;;;;;;5027738;28;37812;-63
2022/08/11 09:12:48;;;;;;;4.03;1.33;;;25.20;89.90;;;;;;5028112;28;36666;-63
2022/08/11 09:15:17;;;;;;;4.28;1.58;;;25.40;88.80;;;;;;5030416;28;36286;-62
2022/08/11 09:17:46;;;;;;;5.85;1.50;;;25.50;87.50;;;;;;5028800;28;37430;-58
2022/08/11 09:20:17;;;;;;;4.32;1.50;;;25.60;87.10;;;;;;5051004;28;39028;-58
2022/08/11 09:28:22;;;;;;;3.90;1.77;;;25.90;84.10;;;;;;5041746;28;37597;-63
2022/08/11 09:30:53;;;;;;;4.50;1.67;;;26.00;84.00;;;;;;5048842;28;38103;-63
2022/08/11 09:33:22;;;;;;;6.78;1.85;;;26.10;84.40;;;;;;5049284;28;39660;-63
2022/08/11 09:35:52;;;;;;;2.63;1.33;;;26.20;84.90;;;;;;5038683;28;38346;-63
2022/08/11 09:41:13;;;;;;;6.88;1.75;;;26.40;82.80;;;;;;5054966;28;37331;-63
2022/08/11 09:46:32;;;;;;;5.10;1.35;;;26.60;83.20;;;;;;5048061;28;37246;-58
2022/08/11 09:49:02;;;;;;;4.80;1.60;;;26.70;79.30;;;;;;5038126;28;36534;-58
2022/08/11 09:51:34;;;;;;;3.63;1.38;;;26.70;76.60;;;;;;5050282;28;37636;-58
2022/08/11 09:54:05;;;;;;;3.78;1.67;;;26.80;73.50;;;;;;5042614;28;38428;-63
2022/08/11 09:59:25;;;;;;;3.75;1.75;;;27.10;68.90;;;;;;5051693;28;37741;-58
2022/08/11 10:01:58;;;;;;;3.85;1.30;;;27.20;66.20;;;;;;5046919;28;36319;-58
2022/08/11 10:04:31;;;;;;;3.78;1.30;;;27.20;64.90;;;;;;5045173;28;38447;-63
2022/08/11 10:07:01;;;;;;;4.22;1.50;;;27.20;64.70;;;;;;5053145;28;36146;-58
2022/08/11 10:09:37;;;;;;;5.05;1.55;;;27.30;65.20;;;;;;5044766;28;36405;-57
2022/08/11 10:12:10;;;;;;;3.42;1.50;;;27.40;65.80;;;;;;5044781;28;40421;-58
2022/08/11 10:17:32;;;;;;;4.53;1.75;;;27.50;64.40;;;;;;5039978;28;39485;-58
2022/08/11 10:20:04;;;;;;;5.50;1.55;;;27.50;63.10;;;;;;5050173;28;38920;-63
2022/08/11 10:28:08;;;;;;;4.70;1.52;;;27.60;63.50;;;;;;5047883;28;37337;-58
2022/08/11 10:36:19;;;;;;;2.58;1.20;;;27.80;60.80;;;;;;5052174;28;38928;-63
2022/08/11 10:38:51;;;;;;;4.65;1.35;;;27.90;59.20;;;;;;5041914;28;38108;-63
2022/08/11 10:44:07;;;;;;;2.97;1.20;;;27.90;57.60;;;;;;5044926;28;38490;-63
2022/08/11 10:49:21;;;;;;;3.40;1.17;;;28.00;57.10;;;;;;5045764;28;38147;-63
2022/08/11 11:00:13;;;;;;;3.97;1.55;;;28.10;56.30;;;;;;5041363;28;37210;-63
2022/08/11 11:02:42;;;;;;;3.97;1.40;;;28.10;57.00;;;;;;5052198;28;35392;-63
2022/08/11 11:05:15;;;;;;;4.05;1.20;;;28.10;55.60;;;;;;5044162;28;39143;-63
2022/08/11 11:07:52;;;;;;;3.58;1.00;;;28.10;54.40;;;;;;5045460;28;38733;-63
2022/08/11 11:10:22;;;;;;;2.85;1.20;;;28.20;53.90;;;;;;5050459;28;38539;-63
2022/08/11 11:18:34;;;;;;;2.58;1.00;;;28.20;51.60;;;;;;5047894;28;38442;-63
2022/08/11 11:21:06;;;;;;;1.98;1.10;;;28.20;53.60;;;;;;5052114;28;37261;-58
2022/08/11 11:23:38;;;;;;;3.13;0.98;;;28.30;53.60;;;;;;5048142;28;36545;-62
2022/08/11 11:26:19;;;;;;;5.70;1.30;;;28.30;52.90;;;;;;5047452;28;37705;-63
2022/08/11 11:29:23;;;;;;;2.67;1.10;;;28.30;52.70;;;;;;5050953;28;39069;-58
2022/08/11 11:32:24;;;;;;;3.42;1.30;;;28.30;52.80;;;;;;5052332;28;38225;-58
2022/08/11 11:35:25;;;;;;;6.78;1.45;;;28.30;53.20;;;;;;5051840;28;36491;-58
2022/08/11 11:37:54;;;;;;;3.10;0.95;;;28.30;54.80;;;;;;5049173;28;40063;-58
2022/08/11 11:40:23;;;;;;;2.55;1.10;;;28.30;54.60;;;;;;5047903;28;37998;-63
2022/08/11 11:42:53;;;;;;;3.60;1.35;;;28.30;52.70;;;;;;5048616;28;36056;-63
2022/08/11 11:45:23;;;;;;;3.20;1.23;;;28.30;51.70;;;;;;5046803;28;36413;-58
2022/08/11 11:47:54;;;;;;;8.35;1.35;;;28.20;52.00;;;;;;5049502;28;36420;-63
2022/08/11 11:50:26;;;;;;;2.55;1.15;;;28.20;51.90;;;;;;5052395;28;37805;-62
2022/08/11 11:52:55;;;;;;;4.43;1.33;;;28.20;53.10;;;;;;5051071;28;37272;-58
2022/08/11 11:55:24;;;;;;;3.50;1.33;;;28.20;53.00;;;;;;5047246;28;36341;-58
2022/08/11 12:03:27;;;;;;;2.85;1.00;;;28.40;53.80;;;;;;5043141;28;38025;-58
2022/08/11 12:05:55;;;;;;;4.68;1.58;;;28.40;53.10;;;;;;5044369;28;38429;-58
2022/08/11 12:08:24;;;;;;;4.00;1.70;;;28.30;51.80;;;;;;5048362;28;37719;-57
2022/08/11 12:13:39;;;;;;;6.10;1.27;;;28.30;52.30;;;;;;5048724;28;40874;-58
2022/08/11 12:13:43;;;;;;;3.85;1.65;;;28.20;52.30;;;;;;5037126;28;36850;-58
2022/08/11 12:16:13;;;;;;;5.00;1.58;;;28.20;52.30;;;;;;5048606;28;37486;-58
2022/08/11 12:18:43;;;;;;;3.45;1.38;;;28.20;53.20;;;;;;5035175;28;38602;-57
2022/08/11 12:21:11;;;;;;;5.68;1.45;;;28.10;52.20;;;;;;5044335;28;36466;-58
2022/08/11 12:29:12;;;;;;;3.78;1.40;;;28.00;52.60;;;;;;5044356;28;38661;-58
2022/08/11 12:31:41;;;;;;;4.97;1.33;;;28.00;52.50;;;;;;5045943;28;39244;-58
2022/08/11 12:34:12;;;;;;;4.38;1.30;;;28.00;52.90;;;;;;5044616;28;37252;-58
2022/08/11 12:36:42;;;;;;;5.20;1.58;;;28.00;51.90;;;;;;5047116;28;36664;-57
2022/08/11 12:39:13;;;;;;;5.38;1.30;;;28.00;51.40;;;;;;5042370;28;37378;-58
2022/08/11 12:47:17;;;;;;;2.70;1.15;;;27.90;52.20;;;;;;5006030;28;36279;-58
2022/08/11 12:52:42;;;;;;;3.47;1.10;;;27.80;50.50;;;;;;5048858;28;38907;-58
2022/08/11 12:55:12;;;;;;;3.95;1.17;;;27.80;51.30;;;;;;5048487;28;39164;-58
2022/08/11 13:06:03;;;;;;;3.88;1.15;;;27.80;51.50;;;;;;5041337;28;39015;-58
2022/08/11 13:08:35;;;;;;;4.38;1.42;;;27.80;50.00;;;;;;5042564;28;36489;-64
2022/08/11 13:13:51;;;;;;;3.20;1.27;;;27.80;50.40;;;;;;5038989;28;39324;-63
2022/08/11 13:16:19;;;;;;;3.03;1.10;;;27.70;49.90;;;;;;5040090;28;37422;-58
2022/08/11 13:18:47;;;;;;;2.60;1.20;;;27.70;50.40;;;;;;5034390;28;37321;-58
2022/08/11 13:21:16;;;;;;;6.43;1.40;;;27.70;51.90;;;;;;5021777;28;37512;-58
2022/08/11 13:23:44;;;;;;;2.75;1.08;;;27.60;53.20;;;;;;5031230;28;37741;-58
2022/08/11 13:26:12;;;;;;;4.43;1.23;;;27.70;53.00;;;;;;5026648;28;38672;-58
2022/08/11 13:28:40;;;;;;;1.98;0.98;;;27.60;51.90;;;;;;5033873;28;37041;-63
2022/08/11 13:31:10;;;;;;;4.88;1.48;;;27.60;52.00;;;;;;5037338;28;37460;-63
2022/08/11 13:33:41;;;;;;;3.78;1.23;;;27.60;52.30;;;;;;5039263;28;38332;-58
2022/08/11 13:36:09;;;;;;;4.03;1.10;;;27.60;53.50;;;;;;5039747;28;37476;-58
2022/08/11 13:38:40;;;;;;;4.28;1.00;;;27.50;54.30;;;;;;5039745;28;36119;-58
2022/08/11 13:43:51;;;;;;;3.30;0.95;;;27.50;53.10;;;;;;5037796;28;37732;-63
2022/08/11 13:46:19;;;;;;;3.05;1.13;;;27.50;53.30;;;;;;5038844;28;38421;-63
2022/08/11 13:48:47;;;;;;;4.10;1.13;;;27.50;52.30;;;;;;5037773;28;37406;-58
2022/08/11 13:51:31;;;;;;;5.03;1.10;;;27.50;53.20;;;;;;5037205;28;37391;-63
2022/08/11 13:54:03;;;;;;;3.17;1.00;;;27.40;52.70;;;;;;5023797;28;37634;-58
2022/08/11 13:56:32;;;;;;;5.20;1.15;;;27.40;52.80;;;;;;5036432;28;36455;-63
2022/08/11 13:59:01;;;;;;;2.20;0.95;;;27.40;52.80;;;;;;5035568;28;36430;-63
2022/08/11 14:01:33;;;;;;;2.88;1.05;;;27.40;53.60;;;;;;5036583;28;40759;-63
2022/08/11 14:04:08;;;;;;;1.77;1.02;;;27.40;53.20;;;;;;5035742;28;39520;-58
2022/08/11 14:06:38;;;;;;;6.20;1.00;;;27.40;51.50;;;;;;5038997;28;36255;-58
2022/08/11 14:09:09;;;;;;;2.65;0.80;;;27.30;50.70;;;;;;5036668;28;37774;-58
2022/08/11 14:14:32;;;;;;;3.03;1.05;;;27.20;50.90;;;;;;5038152;28;40781;-58
2022/08/11 14:17:06;;;;;;;2.67;0.95;;;27.20;50.60;;;;;;5036937;28;38024;-63
2022/08/11 14:19:37;;;;;;;14.18;1.48;;;27.20;52.00;;;;;;5029626;28;39113;-63
2022/08/11 14:22:05;;;;;;;4.55;0.90;;;27.20;51.00;;;;;;5023760;28;37942;-63
2022/08/11 14:24:36;;;;;;;2.15;1.08;;;27.10;51.80;;;;;;5025091;28;37808;-63
2022/08/11 14:27:05;;;;;;;3.10;1.17;;;27.10;51.30;;;;;;5024229;28;38794;-63
2022/08/11 14:29:37;;;;;;;3.90;1.10;;;27.10;52.00;;;;;;5023160;28;36757;-58
2022/08/11 14:32:07;;;;;;;3.55;1.05;;;27.10;52.50;;;;;;5024944;28;40011;-58
2022/08/11 14:34:36;;;;;;;4.32;1.25;;;27.00;52.80;;;;;;5021681;28;38282;-58
2022/08/11 14:37:06;;;;;;;3.08;1.33;;;27.00;52.50;;;;;;5023807;28;36078;-58
2022/08/11 14:39:41;;;;;;;4.93;1.10;;;27.00;52.70;;;;;;5025193;28;38998;-63
2022/08/11 14:47:45;;;;;;;4.68;1.00;;;26.90;53.20;;;;;;5026162;28;39379;-58
2022/08/11 14:50:16;;;;;;;2.70;1.00;;;27.00;53.40;;;;;;5023807;28;37038;-59
2022/08/11 14:52:49;;;;;;;3.65;1.13;;;26.90;53.60;;;;;;5023955;28;37579;-58
2022/08/11 14:58:05;;;;;;;4.13;1.30;;;26.90;55.00;;;;;;4991850;28;36232;-62
2022/08/11 15:00:34;;;;;;;6.45;1.30;;;26.80;55.80;;;;;;5025480;28;35019;-62
2022/08/11 15:03:09;;;;;;;6.05;1.25;;;26.80;56.70;;;;;;5023971;28;38950;-62
2022/08/11 15:05:37;;;;;;;6.70;1.40;;;26.80;57.40;;;;;;5025258;28;37774;-62
2022/08/11 15:08:06;;;;;;;6.10;1.40;;;26.70;58.20;;;;;;5025353;28;39116;-63
2022/08/11 15:10:38;;;;;;;5.18;1.27;;;26.70;58.30;;;;;;5025166;28;37608;-63
2022/08/11 15:13:06;;;;;;;2.22;1.13;;;26.60;58.10;;;;;;5024914;28;37802;-63
2022/08/11 15:18:23;;;;;;;7.60;1.23;;;26.50;58.60;;;;;;5025620;28;38554;-59
2022/08/11 15:37:34;;;;;;;6.47;1.40;;;26.30;60.10;;;;;;5034352;28;38935;-62
2022/08/11 15:45:52;;;;;;;3.15;1.25;;;26.20;60.10;;;;;;5034769;28;39471;-63
2022/08/11 15:48:28;;;;;;;5.07;1.23;;;26.10;59.60;;;;;;5034579;28;38985;-58
2022/08/11 15:51:02;;;;;;;2.80;1.25;;;26.10;59.10;;;;;;5032368;28;39707;-58
2022/08/11 15:53:38;;;;;;;7.80;1.20;;;26.10;59.80;;;;;;5030839;28;36681;-58
2022/08/11 15:56:08;;;;;;;6.32;1.20;;;26.00;60.50;;;;;;5032983;28;36397;-62
2022/08/11 16:04:16;;;;;;;5.07;1.23;;;25.90;62.00;;;;;;5034344;28;38309;-58
2022/08/11 16:06:49;;;;;;;5.00;1.60;;;25.90;62.50;;;;;;5029414;28;38994;-58
2022/08/11 16:09:23;;;;;;;4.85;1.48;;;25.90;61.60;;;;;;5035440;28;36548;-59
2022/08/11 16:11:52;;;;;;;3.60;1.33;;;25.80;61.40;;;;;;5033690;28;37080;-57
2022/08/11 16:17:11;;;;;;;3.97;1.40;;;25.80;63.20;;;;;;5030570;28;38357;-58
2022/08/11 16:19:42;;;;;;;2.50;1.35;;;25.70;63.20;;;;;;5034122;28;37599;-59
2022/08/11 16:22:12;;;;;;;4.30;1.65;;;25.60;63.50;;;;;;5035607;28;37779;-58
2022/08/11 16:24:44;;;;;;;7.45;1.70;;;25.60;63.90;;;;;;5035643;28;38030;-57
2022/08/11 16:27:14;;;;;;;4.72;1.30;;;25.50;64.90;;;;;;5033394;28;38518;-57
2022/08/11 16:29:46;;;;;;;4.38;1.55;;;25.50;65.60;;;;;;5034699;28;37763;-57
2022/08/11 16:32:19;;;;;;;4.70;1.40;;;25.50;65.40;;;;;;5038764;28;38267;-57
2022/08/11 16:40:24;;;;;;;4.13;1.17;;;25.40;63.80;;;;;;5038243;28;39846;-57
2022/08/11 16:48:32;;;;;;;3.65;1.42;;;25.30;64.10;;;;;;5044039;28;39618;-57
2022/08/11 16:50:59;;;;;;;5.40;1.35;;;25.40;64.40;;;;;;5039460;28;36035;-57
2022/08/11 16:53:30;;;;;;;4.20;1.40;;;25.30;65.20;;;;;;5037765;28;38070;-57
2022/08/11 16:56:02;;;;;;;7.80;1.23;;;25.30;65.10;;;;;;5036176;28;37166;-57
2022/08/11 17:01:22;;;;;;;3.80;1.33;;;25.20;64.80;;;;;;5037458;28;38692;-61
2022/08/11 17:16:05;;;;;;;8.27;1.33;;;25.10;65.90;;;;;;5040114;28;37943;-58
2022/08/11 17:18:01;;;;;;;4.68;1.48;;;25.10;66.60;;;;;;5037606;28;37089;-57
2022/08/11 17:20:30;;;;;;;5.43;1.50;;;25.00;66.70;;;;;;5034596;28;37669;-57
2022/08/11 17:25:47;;;;;;;2.95;1.58;;;25.00;68.30;;;;;;5041887;28;38082;-63
2022/08/11 17:28:17;;;;;;;7.00;1.40;;;24.90;69.20;;;;;;5043421;28;37436;-58
2022/08/11 17:36:17;;;;;;;3.45;1.50;;;24.80;72.00;;;;;;5000163;28;36878;-57
2022/08/11 17:38:47;;;;;;;6.03;1.52;;;24.80;72.60;;;;;;5040436;28;36650;-57
2022/08/11 17:49:36;;;;;;;4.63;1.73;;;24.60;76.00;;;;;;5042907;28;38627;-57
2022/08/11 18:00:24;;;;;;;3.50;1.73;;;24.40;79.90;;;;;;5043026;28;38981;-62
2022/08/11 18:05:44;;;;;;;4.15;1.73;;;24.40;81.20;;;;;;5039285;28;38493;-58
